createdAt,value
2019-03-18T00:00:47.014Z,99758.64
2019-03-18T00:03:11.491Z,99758.64
2019-03-18T00:05:36.003Z,99766.53
2019-03-18T00:08:00.405Z,99769.18
2019-03-18T00:10:25.072Z,99759.56
2019-03-18T00:12:52.020Z,99759.77
2019-03-18T00:15:15.785Z,99768.92
2019-03-18T00:17:40.215Z,99767.70
2019-03-18T00:20:06.352Z,99775.14
2019-03-18T00:22:30.771Z,99768.92
2019-03-18T00:24:55.169Z,99768.37
2019-03-18T00:27:19.589Z,99765.76
2019-03-18T00:29:44.060Z,99774.16
2019-03-18T00:32:08.601Z,99778.44
2019-03-18T00:34:33.015Z,99782.84
2019-03-18T00:36:57.431Z,99783.91
2019-03-18T00:39:21.850Z,99789.31
2019-03-18T00:41:46.281Z,99792.22
2019-03-18T00:44:10.757Z,99793.68
2019-03-18T00:46:35.251Z,99788.98
2019-03-18T00:48:59.662Z,99791.57
2019-03-18T00:51:24.085Z,99792.38
2019-03-18T00:53:48.492Z,99796.79
2019-03-18T00:56:12.938Z,99800.77
2019-03-18T00:58:37.317Z,99802.41
2019-03-18T01:01:01.714Z,99807.34
2019-03-18T01:03:26.125Z,99795.77
2019-03-18T01:05:50.615Z,99797.94
2019-03-18T01:08:15.023Z,99805.89
2019-03-18T01:10:39.448Z,99809.79
2019-03-18T01:13:03.866Z,99810.61
2019-03-18T01:15:28.845Z,99809.00
2019-03-18T01:17:53.331Z,99800.43
2019-03-18T01:20:17.978Z,99797.67
2019-03-18T01:22:42.511Z,99803.63
2019-03-18T01:25:09.439Z,99797.50
2019-03-18T01:27:33.841Z,99790.08
2019-03-18T01:29:58.624Z,99799.66
2019-03-18T01:32:23.220Z,99791.40
2019-03-18T01:34:47.610Z,99793.16
2019-03-18T01:37:12.036Z,99783.34
2019-03-18T01:39:37.108Z,99781.00
2019-03-18T01:42:01.527Z,99791.27
2019-03-18T01:44:25.941Z,99794.36
2019-03-18T01:46:50.376Z,99781.75
2019-03-18T01:49:14.774Z,99804.64
2019-03-18T01:51:39.216Z,99807.40
2019-03-18T01:54:03.608Z,99785.20
2019-03-18T01:56:28.003Z,99791.55
2019-03-18T01:58:52.428Z,99785.77
2019-03-18T02:01:16.820Z,99788.94
2019-03-18T02:03:41.245Z,99814.05
2019-03-18T02:06:05.695Z,99794.51
2019-03-18T02:08:30.126Z,99799.41
2019-03-18T02:10:54.799Z,99807.03
2019-03-18T02:13:19.213Z,99795.97
2019-03-18T02:15:52.827Z,99803.69
2019-03-18T02:18:09.810Z,99795.20
2019-03-18T02:20:34.217Z,99805.95
2019-03-18T02:22:58.700Z,99798.55
2019-03-18T02:25:23.111Z,99799.94
2019-03-18T02:27:47.538Z,99799.22
2019-03-18T02:30:14.616Z,99802.23
2019-03-18T02:32:39.082Z,99807.62
2019-03-18T02:35:03.553Z,99803.59
2019-03-18T02:37:27.990Z,99801.66
2019-03-18T02:39:52.393Z,99802.23
2019-03-18T02:42:16.808Z,99811.04
2019-03-18T02:44:41.236Z,99808.96
2019-03-18T02:47:05.629Z,99821.72
2019-03-18T02:49:30.060Z,99818.61
2019-03-18T02:51:54.468Z,99814.16
2019-03-18T02:54:18.896Z,99812.23
2019-03-18T02:56:43.301Z,99802.72
2019-03-18T02:59:07.713Z,99812.78
2019-03-18T03:01:32.137Z,99811.52
2019-03-18T03:03:56.613Z,99804.84
2019-03-18T03:06:21.216Z,99808.66
2019-03-18T03:08:45.751Z,99808.31
2019-03-18T03:11:10.220Z,99832.81
2019-03-18T03:13:34.659Z,99813.89
2019-03-18T03:15:59.081Z,99816.27
2019-03-18T03:18:23.530Z,99808.17
2019-03-18T03:20:48.009Z,99810.39
2019-03-18T03:23:12.449Z,99818.64
2019-03-18T03:25:36.862Z,99832.26
2019-03-18T03:28:01.301Z,99828.78
2019-03-18T03:30:25.716Z,99845.57
2019-03-18T03:32:50.120Z,99826.60
2019-03-18T03:35:16.301Z,99838.48
2019-03-18T03:37:40.694Z,99828.76
2019-03-18T03:40:07.369Z,99843.64
2019-03-18T03:42:31.771Z,99827.86
2019-03-18T03:44:56.178Z,99827.50
2019-03-18T03:47:20.580Z,99833.27
2019-03-18T03:49:45.073Z,99853.16
2019-03-18T03:52:09.540Z,99843.97
2019-03-18T03:54:33.945Z,99851.20
2019-03-18T03:56:58.491Z,99856.22
2019-03-18T03:59:23.046Z,99854.27
2019-03-18T04:01:47.530Z,99858.67
2019-03-18T04:04:12.082Z,99857.42
2019-03-18T04:06:36.567Z,99855.06
2019-03-18T04:09:01.135Z,99858.47
2019-03-18T04:11:25.543Z,99855.87
2019-03-18T04:13:49.964Z,99865.30
2019-03-18T04:16:14.381Z,99863.36
2019-03-18T04:18:38.888Z,99861.66
2019-03-18T04:21:03.426Z,99851.48
2019-03-18T04:23:27.834Z,99876.55
2019-03-18T04:25:52.848Z,99859.80
2019-03-18T04:28:17.269Z,99860.82
2019-03-18T04:30:41.682Z,99860.84
2019-03-18T04:33:06.079Z,99862.98
2019-03-18T04:35:30.573Z,99879.06
2019-03-18T04:37:54.970Z,99874.50
2019-03-18T04:40:19.432Z,99890.53
2019-03-18T04:42:43.815Z,99901.16
2019-03-18T04:45:09.782Z,99897.84
2019-03-18T04:47:34.251Z,99895.99
2019-03-18T04:49:58.679Z,99893.66
2019-03-18T04:52:23.072Z,99887.59
2019-03-18T04:54:47.499Z,99888.56
2019-03-18T04:57:11.891Z,99891.45
2019-03-18T04:59:36.304Z,99898.71
2019-03-18T05:02:00.712Z,99902.39
2019-03-18T05:04:25.122Z,99904.45
2019-03-18T05:06:49.613Z,99905.46
2019-03-18T05:09:14.603Z,99908.16
2019-03-18T05:11:39.011Z,99916.39
2019-03-18T05:14:03.406Z,99930.01
2019-03-18T05:16:27.856Z,99922.67
2019-03-18T05:18:52.252Z,99929.49
2019-03-18T05:21:16.675Z,99933.73
2019-03-18T05:23:41.073Z,99932.72
2019-03-18T05:26:05.867Z,99935.91
2019-03-18T05:28:30.259Z,99934.12
2019-03-18T05:30:54.676Z,99933.88
2019-03-18T05:33:19.083Z,99947.56
2019-03-18T05:35:43.505Z,99953.77
2019-03-18T05:38:07.915Z,99966.03
2019-03-18T05:40:32.347Z,99959.25
2019-03-18T05:42:56.739Z,99963.29
2019-03-18T05:45:21.233Z,99966.86
2019-03-18T05:47:45.712Z,99969.64
2019-03-18T05:50:11.471Z,99960.41
2019-03-18T05:52:35.881Z,99979.88
2019-03-18T05:55:00.344Z,99976.91
2019-03-18T05:57:26.053Z,99992.84
2019-03-18T05:59:50.837Z,99997.92
2019-03-18T06:02:15.233Z,100006.83
2019-03-18T06:04:39.636Z,100004.34
2019-03-18T06:07:04.151Z,100003.26
2019-03-18T06:09:29.120Z,100002.53
2019-03-18T06:11:53.556Z,100008.19
2019-03-18T06:14:17.960Z,100011.00
2019-03-18T06:16:42.418Z,100016.23
2019-03-18T06:19:06.886Z,100032.06
2019-03-18T06:21:31.323Z,100026.25
2019-03-18T06:23:55.729Z,100036.23
2019-03-18T06:26:20.167Z,100034.83
2019-03-18T06:28:44.571Z,100031.63
2019-03-18T06:31:09.082Z,100040.65
2019-03-18T06:33:33.500Z,100042.70
2019-03-18T06:35:57.934Z,100050.27
2019-03-18T06:38:22.425Z,100052.10
2019-03-18T06:40:46.912Z,100049.14
2019-03-18T06:43:11.318Z,100046.54
2019-03-18T06:45:35.756Z,100046.91
2019-03-18T06:48:05.306Z,100052.53
2019-03-18T06:50:26.366Z,100045.14
2019-03-18T06:52:50.767Z,100062.73
2019-03-18T06:55:15.164Z,100052.95
2019-03-18T06:57:39.589Z,100051.89
2019-03-18T07:00:12.065Z,100062.94
2019-03-18T07:02:36.489Z,100066.66
2019-03-18T07:05:00.874Z,100053.89
2019-03-18T07:07:25.288Z,100062.01
2019-03-18T07:09:49.739Z,100065.78
2019-03-18T07:12:14.173Z,100048.70
2019-03-18T07:14:38.585Z,100065.39
2019-03-18T07:17:03.095Z,100061.63
2019-03-18T07:19:27.591Z,100065.55
2019-03-18T07:21:52.018Z,100068.02
2019-03-18T07:24:16.535Z,100070.17
2019-03-18T07:26:40.956Z,100083.56
2019-03-18T07:29:05.360Z,100068.19
2019-03-18T07:31:29.861Z,100081.45
2019-03-18T07:33:54.267Z,100074.90
2019-03-18T07:36:18.711Z,100082.97
2019-03-18T07:38:43.110Z,100077.05
2019-03-18T07:41:07.718Z,100088.97
2019-03-18T07:43:32.292Z,100091.80
2019-03-18T07:45:56.823Z,100086.16
2019-03-18T07:48:30.282Z,100096.80
2019-03-18T07:50:47.346Z,100093.92
2019-03-18T07:53:11.751Z,100098.22
2019-03-18T07:55:36.232Z,100112.69
2019-03-18T07:58:00.627Z,100111.04
2019-03-18T08:00:25.027Z,100121.38
2019-03-18T08:02:49.511Z,100130.66
2019-03-18T08:05:13.968Z,100122.86
2019-03-18T08:07:38.543Z,100131.59
2019-03-18T08:10:02.936Z,100143.75
2019-03-18T08:12:27.357Z,100144.95
2019-03-18T08:14:51.748Z,100135.73
2019-03-18T08:17:16.162Z,100132.39
2019-03-18T08:19:40.579Z,100126.54
2019-03-18T08:22:05.071Z,100134.28
2019-03-18T08:24:29.472Z,100144.87
2019-03-18T08:26:53.891Z,100163.20
2019-03-18T08:29:18.371Z,100145.99
2019-03-18T08:31:42.803Z,100155.05
2019-03-18T08:34:07.204Z,100153.93
2019-03-18T08:36:31.696Z,100150.10
2019-03-18T08:38:56.124Z,100156.03
2019-03-18T08:41:20.514Z,100153.42
2019-03-18T08:43:44.948Z,100166.69
2019-03-18T08:46:09.333Z,100163.88
2019-03-18T08:48:33.753Z,100175.91
2019-03-18T08:50:58.159Z,100165.87
2019-03-18T08:53:22.575Z,100193.02
2019-03-18T08:55:46.966Z,100180.45
2019-03-18T08:58:11.460Z,100163.44
2019-03-18T09:00:35.937Z,100180.68
2019-03-18T09:03:00.451Z,100185.98
2019-03-18T09:05:24.823Z,100177.82
2019-03-18T09:07:49.326Z,100147.55
2019-03-18T09:10:14.973Z,100185.03
2019-03-18T09:12:39.423Z,100185.10
2019-03-18T09:15:05.466Z,100202.63
2019-03-18T09:17:29.965Z,100189.53
2019-03-18T09:19:54.369Z,100207.91
2019-03-18T09:22:18.811Z,100190.45
2019-03-18T09:24:43.222Z,100199.45
2019-03-18T09:27:07.620Z,100208.73
2019-03-18T09:29:32.060Z,100206.69
2019-03-18T09:31:56.479Z,100204.25
2019-03-18T09:34:20.901Z,100212.77
2019-03-18T09:36:45.309Z,100188.34
2019-03-18T09:39:09.763Z,100188.11
2019-03-18T09:41:34.237Z,100218.73
2019-03-18T09:43:58.669Z,100215.16
2019-03-18T09:46:23.095Z,100211.75
2019-03-18T09:48:47.597Z,100226.45
2019-03-18T09:51:12.004Z,100232.65
2019-03-18T09:53:37.684Z,100216.10
2019-03-18T09:56:02.315Z,100239.20
2019-03-18T09:58:26.824Z,100252.87
2019-03-18T10:00:51.382Z,100227.26
2019-03-18T10:03:15.813Z,100239.41
2019-03-18T10:05:40.283Z,100249.05
2019-03-18T10:08:04.859Z,100243.31
2019-03-18T10:10:29.271Z,100248.41
2019-03-18T10:12:53.697Z,100272.59
2019-03-18T10:15:20.186Z,100271.68
2019-03-18T10:17:44.689Z,100270.43
2019-03-18T10:20:09.928Z,100270.36
2019-03-18T10:22:36.096Z,100275.50
2019-03-18T10:25:00.497Z,100279.53
2019-03-18T10:27:24.892Z,100267.34
2019-03-18T10:29:49.357Z,100292.03
2019-03-18T10:32:13.762Z,100293.28
2019-03-18T10:34:38.255Z,100291.20
2019-03-18T10:37:02.662Z,100295.70
2019-03-18T10:39:27.082Z,100280.41
2019-03-18T10:41:51.487Z,100292.39
2019-03-18T10:44:15.968Z,100291.33
2019-03-18T10:46:40.388Z,100309.61
2019-03-18T10:49:04.879Z,100311.34
2019-03-18T10:51:31.850Z,100330.98
2019-03-18T10:53:55.518Z,100316.27
2019-03-18T10:56:19.915Z,100315.05
2019-03-18T10:58:44.355Z,100317.81
2019-03-18T11:01:08.738Z,100300.11
2019-03-18T11:03:33.175Z,100319.03
2019-03-18T11:05:57.572Z,100316.42
2019-03-18T11:08:22.008Z,100317.01
2019-03-18T11:10:46.408Z,100313.24
2019-03-18T11:13:10.809Z,100322.77
2019-03-18T11:15:35.311Z,100316.62
2019-03-18T11:17:59.792Z,100311.52
2019-03-18T11:20:24.291Z,100327.36
2019-03-18T11:22:48.702Z,100347.80
2019-03-18T11:25:15.231Z,100345.85
2019-03-18T11:27:39.692Z,100346.75
2019-03-18T11:30:05.851Z,100347.41
2019-03-18T11:32:30.260Z,100355.13
2019-03-18T11:34:54.673Z,100350.58
2019-03-18T11:37:19.084Z,100341.70
2019-03-18T11:39:43.515Z,100350.89
2019-03-18T11:42:07.982Z,100350.42
2019-03-18T11:44:32.417Z,100350.62
2019-03-18T11:46:56.828Z,100344.10
2019-03-18T11:49:21.336Z,100341.87
2019-03-18T11:51:45.733Z,100339.14
2019-03-18T11:54:10.220Z,100345.02
2019-03-18T11:56:34.659Z,100337.58
2019-03-18T11:58:59.167Z,100344.55
2019-03-18T12:01:23.641Z,100340.55
2019-03-18T12:03:48.037Z,100339.52
2019-03-18T12:06:12.533Z,100346.72
2019-03-18T12:08:36.932Z,100347.47
2019-03-18T12:11:01.345Z,100347.73
2019-03-18T12:13:25.741Z,100369.70
2019-03-18T12:15:50.174Z,100374.08
2019-03-18T12:18:14.673Z,100363.60
2019-03-18T12:20:39.239Z,100357.27
2019-03-18T12:23:03.707Z,100370.66
2019-03-18T12:25:28.151Z,100348.77
2019-03-18T12:27:52.572Z,100345.64
2019-03-18T12:30:24.767Z,100334.94
2019-03-18T12:32:49.293Z,100325.79
2019-03-18T12:35:13.971Z,100332.95
2019-03-18T12:37:38.374Z,100338.13
2019-03-18T12:40:02.952Z,100336.89
2019-03-18T12:42:27.351Z,100338.27
2019-03-18T12:44:51.932Z,100350.50
2019-03-18T12:47:16.420Z,100396.75
2019-03-18T12:49:40.852Z,100447.41
2019-03-18T12:52:05.336Z,100462.66
2019-03-18T12:54:29.753Z,100444.45
2019-03-18T12:56:54.188Z,100425.49
2019-03-18T12:59:18.598Z,100425.52
2019-03-18T13:01:43.101Z,100424.19
2019-03-18T13:04:07.584Z,100429.55
2019-03-18T13:06:33.506Z,100430.03
2019-03-18T13:08:58.308Z,100424.34
2019-03-18T13:11:22.886Z,100411.67
2019-03-18T13:13:47.386Z,100423.01
2019-03-18T13:16:11.824Z,100428.71
2019-03-18T13:18:36.362Z,100421.23
2019-03-18T13:21:07.734Z,100429.45
2019-03-18T13:23:26.906Z,100427.59
2019-03-18T13:25:51.426Z,100414.97
2019-03-18T13:28:15.931Z,100413.95
2019-03-18T13:30:40.380Z,100417.34
2019-03-18T13:33:04.924Z,100411.02
2019-03-18T13:35:29.358Z,100413.02
2019-03-18T13:37:53.763Z,100424.30
2019-03-18T13:40:19.909Z,100409.70
2019-03-18T13:42:44.484Z,100413.06
2019-03-18T13:45:22.143Z,100405.62
2019-03-18T13:47:46.582Z,100416.41
2019-03-18T13:50:13.195Z,100419.72
2019-03-18T13:52:37.699Z,100428.33
2019-03-18T13:55:02.115Z,100420.89
2019-03-18T13:57:26.535Z,100435.78
2019-03-18T13:59:50.958Z,100422.20
2019-03-18T14:02:15.435Z,100431.30
2019-03-18T14:04:39.836Z,100427.28
2019-03-18T14:07:04.361Z,100435.16
2019-03-18T14:09:28.851Z,100430.61
2019-03-18T14:11:53.271Z,100444.59
2019-03-18T14:14:17.691Z,100445.51
2019-03-18T14:16:42.212Z,100427.08
2019-03-18T14:19:06.721Z,100432.74
2019-03-18T14:21:33.449Z,100441.55
2019-03-18T14:23:57.280Z,100450.89
2019-03-18T14:26:21.711Z,100450.08
2019-03-18T14:28:46.124Z,100445.46
2019-03-18T14:31:10.561Z,100450.42
2019-03-18T14:33:35.042Z,100448.58
2019-03-18T14:35:59.507Z,100449.53
2019-03-18T14:38:23.890Z,100449.25
2019-03-18T14:40:48.309Z,100448.84
2019-03-18T14:43:12.821Z,100467.77
2019-03-18T14:45:37.291Z,100484.80
2019-03-18T14:48:01.725Z,100499.28
2019-03-18T14:50:26.119Z,100498.94
2019-03-18T14:52:50.554Z,100515.78
2019-03-18T14:55:15.886Z,100507.38
2019-03-18T14:57:40.301Z,100529.00
2019-03-18T15:00:10.232Z,100518.70
2019-03-18T15:02:34.688Z,100523.03
2019-03-18T15:04:59.095Z,100528.08
2019-03-18T15:07:23.549Z,100525.47
2019-03-18T15:09:47.964Z,100509.44
2019-03-18T15:12:12.419Z,100528.85
2019-03-18T15:14:36.839Z,100522.34
2019-03-18T15:17:01.359Z,100527.17
2019-03-18T15:19:25.776Z,100525.16
2019-03-18T15:21:58.271Z,100535.41
2019-03-18T15:24:17.386Z,100527.00
2019-03-18T15:26:42.026Z,100536.39
2019-03-18T15:29:06.427Z,100541.11
2019-03-18T15:31:30.989Z,100545.05
2019-03-18T15:33:55.413Z,100550.61
2019-03-18T15:36:19.900Z,100547.25
2019-03-18T15:38:44.349Z,100548.73
2019-03-18T15:41:08.833Z,100556.92
2019-03-18T15:43:33.268Z,100566.21
2019-03-18T15:45:57.672Z,100571.86
2019-03-18T15:48:22.167Z,100578.05
2019-03-18T15:50:46.670Z,100579.19
2019-03-18T15:53:11.093Z,100582.73
2019-03-18T15:55:35.515Z,100578.86
2019-03-18T15:58:00.377Z,100577.86
2019-03-18T16:00:26.136Z,100583.88
2019-03-18T16:02:50.653Z,100584.67
2019-03-18T16:05:15.134Z,100585.73
2019-03-18T16:07:39.847Z,100586.75
2019-03-18T16:10:09.873Z,100604.16
2019-03-18T16:12:34.301Z,100606.75
2019-03-18T16:14:58.712Z,100617.16
2019-03-18T16:17:23.136Z,100613.84
2019-03-18T16:19:47.551Z,100622.12
2019-03-18T16:22:23.007Z,100627.58
2019-03-18T16:24:38.193Z,100640.61
2019-03-18T16:27:02.612Z,100653.05
2019-03-18T16:29:27.102Z,100649.45
2019-03-18T16:31:51.540Z,100653.55
2019-03-18T16:34:15.983Z,100654.23
2019-03-18T16:36:40.371Z,100665.30
2019-03-18T16:39:06.172Z,100676.59
2019-03-18T16:41:30.629Z,100690.35
2019-03-18T16:43:55.078Z,100701.02
2019-03-18T16:46:19.486Z,100696.57
2019-03-18T16:48:43.919Z,100698.59
2019-03-18T16:51:08.320Z,100713.27
2019-03-18T16:53:32.757Z,100708.50
2019-03-18T16:55:57.182Z,100716.40
2019-03-18T16:58:21.675Z,100726.70
2019-03-18T17:00:46.175Z,100739.98
2019-03-18T17:03:10.691Z,100749.05
2019-03-18T17:05:35.095Z,100754.29
2019-03-18T17:07:59.606Z,100751.75
2019-03-18T17:10:24.127Z,100752.23
2019-03-18T17:12:48.717Z,100750.77
2019-03-18T17:15:14.789Z,100752.26
2019-03-18T17:17:39.207Z,100752.14
2019-03-18T17:20:04.811Z,100755.34
2019-03-18T17:22:29.233Z,100758.90
2019-03-18T17:24:53.684Z,100769.48
2019-03-18T17:27:18.090Z,100764.97
2019-03-18T17:29:42.545Z,100773.98
2019-03-18T17:32:06.977Z,100767.76
2019-03-18T17:34:31.466Z,100778.04
2019-03-18T17:36:55.900Z,100786.86
2019-03-18T17:39:20.319Z,100790.70
2019-03-18T17:41:44.748Z,100800.84
2019-03-18T17:44:09.217Z,100810.15
2019-03-18T17:46:33.639Z,100813.70
2019-03-18T17:48:58.062Z,100813.98
2019-03-18T17:51:22.462Z,100815.77
2019-03-18T17:53:46.924Z,100818.67
2019-03-18T17:56:11.331Z,100828.27
2019-03-18T17:58:35.854Z,100843.29
2019-03-18T18:01:01.896Z,100846.87
2019-03-18T18:03:26.321Z,100845.91
2019-03-18T18:05:51.613Z,100860.45
2019-03-18T18:08:18.282Z,100853.76
2019-03-18T18:10:42.247Z,100858.47
2019-03-18T18:13:06.716Z,100863.97
2019-03-18T18:15:31.255Z,100866.34
2019-03-18T18:17:55.670Z,100859.67
2019-03-18T18:20:20.250Z,100868.13
2019-03-18T18:22:44.796Z,100867.90
2019-03-18T18:25:10.806Z,100872.75
2019-03-18T18:27:35.279Z,100871.36
2019-03-18T18:29:59.737Z,100876.70
2019-03-18T18:32:24.271Z,100875.67
2019-03-18T18:34:48.804Z,100885.08
2019-03-18T18:37:14.118Z,100890.40
2019-03-18T18:39:38.563Z,100902.53
2019-03-18T18:42:03.054Z,100903.54
2019-03-18T18:44:27.506Z,100907.48
2019-03-18T18:46:51.898Z,100913.98
2019-03-18T18:49:16.334Z,100920.67
2019-03-18T18:51:40.755Z,100914.13
2019-03-18T18:54:05.239Z,100919.23
2019-03-18T18:56:29.649Z,100924.89
2019-03-18T18:58:54.050Z,100914.05
2019-03-18T19:01:18.494Z,100923.85
2019-03-18T19:03:42.971Z,100937.88
2019-03-18T19:06:07.466Z,100931.34
2019-03-18T19:08:31.941Z,100939.52
2019-03-18T19:10:56.384Z,100936.04
2019-03-18T19:13:20.803Z,100931.92
2019-03-18T19:15:45.313Z,100938.42
2019-03-18T19:18:09.851Z,100930.36
2019-03-18T19:20:34.307Z,100939.22
2019-03-18T19:22:58.801Z,100939.83
2019-03-18T19:25:23.258Z,100949.27
2019-03-18T19:27:47.773Z,100943.55
2019-03-18T19:30:15.156Z,100951.02
2019-03-18T19:32:39.636Z,100956.08
2019-03-18T19:35:05.158Z,100946.92
2019-03-18T19:37:29.567Z,100960.94
2019-03-18T19:39:54.069Z,100954.38
2019-03-18T19:42:18.569Z,100965.64
2019-03-18T19:44:43.125Z,100967.61
2019-03-18T19:47:07.550Z,100971.52
2019-03-18T19:49:31.992Z,100977.97
2019-03-18T19:51:56.436Z,100978.33
2019-03-18T19:54:20.844Z,100984.30
2019-03-18T19:56:45.284Z,100976.28
2019-03-18T19:59:09.703Z,100983.56
2019-03-18T20:01:34.281Z,100980.23
2019-03-18T20:03:58.843Z,100992.91
2019-03-18T20:06:23.355Z,101000.08
2019-03-18T20:08:47.768Z,101003.17
2019-03-18T20:11:12.243Z,101006.44
2019-03-18T20:13:36.608Z,101011.70
2019-03-18T20:16:01.103Z,101010.05
2019-03-18T20:18:25.528Z,101013.44
2019-03-18T20:20:49.956Z,101027.16
2019-03-18T20:23:14.355Z,101023.05
2019-03-18T20:25:38.812Z,101027.28
2019-03-18T20:28:03.278Z,101028.83
2019-03-18T20:30:27.795Z,101028.83
2019-03-18T20:32:52.303Z,101028.59
2019-03-18T20:35:19.820Z,101030.72
2019-03-18T20:37:44.207Z,101039.85
2019-03-18T20:40:11.478Z,101037.58
2019-03-18T20:42:35.943Z,101043.41
2019-03-18T20:45:00.368Z,101043.07
2019-03-18T20:47:24.862Z,101046.04
2019-03-18T20:49:49.274Z,101053.70
2019-03-18T20:52:17.059Z,101060.83
2019-03-18T20:54:41.550Z,101074.37
2019-03-18T20:57:05.961Z,101069.14
2019-03-18T20:59:30.365Z,101076.95
2019-03-18T21:01:54.885Z,101080.64
2019-03-18T21:04:19.313Z,101079.94
2019-03-18T21:06:43.729Z,101084.52
2019-03-18T21:09:08.299Z,101088.54
2019-03-18T21:11:32.715Z,101102.68
2019-03-18T21:13:57.598Z,101096.82
2019-03-18T21:16:22.146Z,101105.55
2019-03-18T21:18:46.542Z,101107.09
2019-03-18T21:21:10.967Z,101102.73
2019-03-18T21:23:35.382Z,101099.08
2019-03-18T21:25:59.810Z,101093.64
2019-03-18T21:28:24.237Z,101095.32
2019-03-18T21:30:48.647Z,101102.05
2019-03-18T21:33:13.205Z,101109.78
2019-03-18T21:35:37.568Z,101113.22
2019-03-18T21:38:01.989Z,101120.19
2019-03-18T21:40:26.445Z,101126.06
2019-03-18T21:42:50.996Z,101137.45
2019-03-18T21:45:19.588Z,101140.45
2019-03-18T21:47:44.289Z,101140.86
2019-03-18T21:50:10.611Z,101140.75
2019-03-18T21:52:35.095Z,101136.47
2019-03-18T21:54:59.500Z,101147.01
2019-03-18T21:57:24.082Z,101149.59
2019-03-18T21:59:48.498Z,101147.95
2019-03-18T22:02:13.070Z,101148.69
2019-03-18T22:04:37.468Z,101152.80
2019-03-18T22:07:01.959Z,101150.36
2019-03-18T22:09:26.379Z,101147.62
2019-03-18T22:11:50.806Z,101144.56
2019-03-18T22:14:15.272Z,101151.48
2019-03-18T22:16:39.794Z,101147.23
2019-03-18T22:19:04.253Z,101160.54
2019-03-18T22:21:28.733Z,101159.99
2019-03-18T22:23:53.234Z,101157.97
2019-03-18T22:26:17.663Z,101163.70
2019-03-18T22:28:42.086Z,101166.67
2019-03-18T22:31:06.494Z,101145.63
2019-03-18T22:33:30.992Z,101160.84
2019-03-18T22:35:55.569Z,101160.94
2019-03-18T22:38:20.068Z,101165.37
2019-03-18T22:40:44.477Z,101166.84
2019-03-18T22:43:08.904Z,101163.52
2019-03-18T22:45:33.289Z,101176.16
2019-03-18T22:47:57.716Z,101187.58
2019-03-18T22:50:22.262Z,101186.52
2019-03-18T22:52:46.687Z,101194.77
2019-03-18T22:55:12.134Z,101193.39
2019-03-18T22:57:36.582Z,101199.69
2019-03-18T23:00:01.066Z,101204.01
2019-03-18T23:02:25.485Z,101199.87
2019-03-18T23:04:49.974Z,101193.73
2019-03-18T23:07:14.489Z,101196.64
2019-03-18T23:09:38.918Z,101197.85
2019-03-18T23:12:03.373Z,101202.55
2019-03-18T23:14:27.810Z,101204.88
2019-03-18T23:16:52.208Z,101199.55
2019-03-18T23:19:16.714Z,101205.31
2019-03-18T23:21:41.211Z,101209.63
2019-03-18T23:24:05.698Z,101213.17
2019-03-18T23:26:30.172Z,101222.20
2019-03-18T23:28:54.601Z,101217.02
2019-03-18T23:31:19.018Z,101215.25
2019-03-18T23:33:43.500Z,101216.34
2019-03-18T23:36:09.941Z,101178.39
2019-03-18T23:38:34.364Z,101221.75
2019-03-18T23:40:58.760Z,101222.30
2019-03-18T23:43:23.184Z,101219.14
2019-03-18T23:45:47.576Z,101230.53
2019-03-18T23:48:12.009Z,101232.33
2019-03-18T23:50:36.417Z,101240.50
2019-03-18T23:53:00.877Z,101240.27
2019-03-18T23:55:25.295Z,101245.62
2019-03-18T23:57:49.710Z,101247.80
